Time;durP1;ratioP1;P1;durP2;ratioP2;P2;SDS_P1;SDS_P2;PMS_P1;PMS_P2;Temp;Humidity;BMP_temperature;BMP_pressure;BME280_temperature;BME280_humidity;BME280_pressure;Samples;Min_cycle;Max_cycle;Signal;HPM_P1;HPM_P2
2021/07/19 00:01:00;;;;;;;1.67;1.45;;;19.00;99.90;;;17.37;100.00;101279.75;3510701;39;103254;-83
2021/07/19 00:03:27;;;;;;;1.38;1.27;;;19.00;99.90;;;17.33;100.00;101281.13;3520865;39;102621;-83
2021/07/19 00:05:55;;;;;;;1.20;1.10;;;19.00;99.90;;;17.32;100.00;101301.94;3528888;39;99315;-85
2021/07/19 00:08:22;;;;;;;2.25;1.52;;;19.10;99.90;;;17.38;100.00;101303.94;3524064;39;99336;-83
2021/07/19 00:10:50;;;;;;;2.47;1.75;;;19.00;99.90;;;17.42;100.00;101305.28;3515900;39;100376;-84
2021/07/19 00:13:18;;;;;;;2.05;1.48;;;18.40;99.90;;;17.44;100.00;101324.00;3512860;39;101653;-84
2021/07/19 00:15:45;;;;;;;1.90;1.25;;;20.10;99.90;;;17.41;100.00;101322.53;3510550;39;101188;-84
2021/07/19 00:18:12;;;;;;;1.35;1.20;;;19.00;99.90;;;17.38;100.00;101328.28;3505569;39;99861;-81
2021/07/19 00:20:39;;;;;;;1.70;1.45;;;19.00;99.90;;;17.43;100.00;101331.28;3510703;39;100786;-82
2021/07/19 00:23:08;;;;;;;5.28;1.10;;;19.90;99.90;;;17.43;100.00;101344.00;3510026;39;103212;-83
2021/07/19 00:25:35;;;;;;;1.83;1.27;;;19.50;99.90;;;17.39;100.00;101351.63;3511519;39;100919;-82
2021/07/19 00:28:03;;;;;;;1.10;1.00;;;19.00;99.90;;;17.51;100.00;101357.47;3512425;39;100146;-83
2021/07/19 00:30:32;;;;;;;2.63;1.67;;;19.10;99.90;;;17.45;100.00;101356.31;3513047;39;101586;-82
2021/07/19 00:32:59;;;;;;;1.95;1.15;;;19.00;99.90;;;17.44;100.00;101351.06;3510076;39;103348;-82
2021/07/19 00:35:29;;;;;;;2.33;1.67;;;19.10;99.90;;;17.45;100.00;101361.72;3515188;39;100723;-81
2021/07/19 00:37:57;;;;;;;1.63;0.85;;;19.10;99.90;;;17.40;100.00;101347.91;3509442;39;100065;-82
2021/07/19 00:40:30;;;;;;;8.85;1.13;;;19.00;99.90;;;17.46;100.00;101355.28;3512666;39;100710;-83
2021/07/19 00:42:57;;;;;;;2.80;0.95;;;19.90;99.90;;;17.37;100.00;101347.41;3521794;39;103116;-82
2021/07/19 00:45:28;;;;;;;1.25;1.15;;;19.00;99.90;;;17.38;100.00;101349.09;3519641;39;102510;-83
2021/07/19 00:47:58;;;;;;;2.30;1.10;;;19.40;99.90;;;17.38;100.00;101347.22;3535049;39;99981;-83
2021/07/19 00:50:28;;;;;;;13.15;1.30;;;18.90;99.90;;;17.37;100.00;101332.00;3521967;39;101870;-82
2021/07/19 00:52:59;;;;;;;4.13;1.60;;;18.90;99.90;;;17.43;100.00;101320.47;3521684;39;103379;-83
2021/07/19 00:55:33;;;;;;;1.73;1.40;;;19.20;99.90;;;17.54;100.00;101300.31;3512351;39;102488;-81
2021/07/19 00:58:04;;;;;;;1.77;1.08;;;18.90;99.90;;;17.64;100.00;101273.88;3521699;39;100326;-82
2021/07/19 01:00:39;;;;;;;2.25;1.60;;;18.90;99.90;;;17.76;100.00;101241.81;3510928;39;103443;-83
2021/07/19 01:03:08;;;;;;;2.05;1.55;;;18.90;99.90;;;17.80;100.00;101203.34;3507174;39;102658;-83
2021/07/19 01:05:38;;;;;;;3.60;1.35;;;19.00;99.90;;;17.85;100.00;101170.31;3514882;39;102237;-83
2021/07/19 01:08:08;;;;;;;1.48;1.02;;;19.00;99.90;;;17.85;100.00;101133.25;3522825;39;100188;-82
2021/07/19 01:10:38;;;;;;;1.95;1.33;;;19.10;99.90;;;17.93;100.00;101111.50;3515056;39;102584;-83
2021/07/19 01:13:08;;;;;;;1.20;1.10;;;19.10;99.90;;;17.98;100.00;101085.75;3523691;39;103299;-83
2021/07/19 01:15:38;;;;;;;1.60;1.20;;;19.20;99.90;;;17.97;100.00;101051.56;3532048;39;101114;-83
2021/07/19 01:18:07;;;;;;;1.08;0.88;;;20.10;99.90;;;17.94;100.00;101026.53;3521213;39;99986;-82
2021/07/19 01:21:01;;;;;;;2.15;1.23;;;19.30;99.90;;;17.93;100.00;101005.06;3531330;39;101070;-82
2021/07/19 01:24:09;;;;;;;1.25;1.00;;;19.30;99.90;;;17.93;100.00;100976.13;3530529;39;101494;-83
2021/07/19 01:27:37;;;;;;;1.40;1.30;;;19.40;99.90;;;17.94;100.00;100955.31;3511564;39;102520;-83
2021/07/19 01:30:07;;;;;;;1.58;1.15;;;19.40;99.90;;;17.93;100.00;100949.03;3516573;39;99930;-82
2021/07/19 01:32:43;;;;;;;1.33;1.00;;;19.40;99.90;;;17.97;100.00;100944.09;3516640;39;101716;-84
2021/07/19 01:35:14;;;;;;;2.15;1.27;;;19.40;99.90;;;18.00;100.00;100938.31;3523145;39;101136;-82
2021/07/19 01:37:45;;;;;;;2.40;1.15;;;19.40;99.90;;;18.00;100.00;100930.19;3513385;39;100235;-83
2021/07/19 01:40:21;;;;;;;2.63;1.58;;;20.40;99.90;;;18.09;100.00;100922.78;3515140;39;100258;-83
2021/07/19 01:42:50;;;;;;;1.80;1.13;;;18.50;99.90;;;18.07;100.00;100905.88;3512289;39;103113;-83
2021/07/19 01:45:19;;;;;;;1.23;1.13;;;20.00;99.90;;;18.08;100.00;100900.28;3530144;39;101121;-82
2021/07/19 01:47:50;;;;;;;0.98;0.88;;;20.60;99.90;;;18.07;100.00;100897.75;3522498;39;101692;-82
2021/07/19 01:50:18;;;;;;;2.58;1.08;;;19.60;99.90;;;18.04;100.00;100890.03;3529145;39;100330;-82
2021/07/19 01:53:06;;;;;;;1.52;1.00;;;19.50;99.90;;;17.96;100.00;100874.72;3533725;39;100640;-83
2021/07/19 01:55:34;;;;;;;2.38;1.27;;;19.60;99.90;;;17.98;100.00;100878.09;3520167;39;102093;-83
2021/07/19 01:58:09;;;;;;;3.97;1.10;;;20.50;99.90;;;17.96;100.00;100882.84;3518819;39;102745;-83
2021/07/19 02:00:42;;;;;;;1.70;1.02;;;19.60;99.90;;;17.92;100.00;100882.41;3518324;39;100049;-82
2021/07/19 02:03:12;;;;;;;1.45;1.10;;;19.60;99.90;;;17.94;100.00;100874.06;3513548;39;102876;-84
2021/07/19 02:05:53;;;;;;;1.63;1.08;;;19.60;99.90;;;17.96;100.00;100877.44;3520580;39;103318;-83
2021/07/19 02:08:23;;;;;;;1.60;1.00;;;19.60;99.90;;;17.95;100.00;100873.88;3514203;39;102728;-83
2021/07/19 02:11:10;;;;;;;2.33;1.23;;;19.60;99.90;;;18.00;100.00;100877.91;3523008;39;101688;-84
2021/07/19 02:13:44;;;;;;;1.45;1.10;;;19.60;99.90;;;17.95;100.00;100878.47;3535898;39;102446;-82
2021/07/19 02:16:15;;;;;;;1.20;1.10;;;19.60;99.90;;;17.90;100.00;100879.06;3519844;39;102874;-83
2021/07/19 02:18:47;;;;;;;1.90;1.20;;;19.60;99.90;;;17.92;100.00;100881.59;3513495;39;101375;-83
2021/07/19 02:21:19;;;;;;;0.88;0.88;;;19.60;99.90;;;17.87;100.00;100871.31;3521664;39;100059;-83
2021/07/19 02:24:09;;;;;;;1.73;1.20;;;19.50;99.90;;;17.95;100.00;100881.16;3508648;39;101970;-83
2021/07/19 02:26:43;;;;;;;0.90;0.85;;;19.60;99.90;;;17.92;100.00;100882.41;3510529;39;103160;-82
2021/07/19 02:29:11;;;;;;;1.42;1.02;;;19.60;99.90;;;17.94;100.00;100887.63;3501913;39;102282;-85
2021/07/19 02:31:41;;;;;;;4.88;1.27;;;19.60;99.90;;;17.88;100.00;100886.53;3514250;39;100003;-81
2021/07/19 02:34:09;;;;;;;1.65;1.23;;;19.60;99.90;;;17.90;100.00;100892.59;3501912;39;102896;-84
2021/07/19 02:36:37;;;;;;;1.95;1.00;;;19.60;99.90;;;17.92;100.00;100895.97;3520032;39;103172;-84
2021/07/19 02:39:05;;;;;;;1.08;0.98;;;19.60;99.90;;;17.84;100.00;100895.22;3512468;39;101986;-84
2021/07/19 02:41:35;;;;;;;2.42;1.40;;;19.60;99.90;;;17.88;100.00;100905.47;3522676;39;100056;-83
2021/07/19 02:44:12;;;;;;;3.33;1.50;;;19.60;99.90;;;17.83;100.00;100909.78;3521073;39;103079;-82
2021/07/19 02:46:57;;;;;;;2.45;1.48;;;19.80;99.90;;;17.82;100.00;100924.34;3511948;39;101757;-82
2021/07/19 02:49:25;;;;;;;1.13;0.98;;;19.60;99.90;;;17.86;100.00;100928.34;3513480;39;102286;-83
2021/07/19 02:51:55;;;;;;;1.63;1.00;;;20.00;99.90;;;17.85;100.00;100937.50;3523230;39;100132;-81
2021/07/19 02:54:25;;;;;;;2.88;1.10;;;19.60;99.90;;;17.76;100.00;100953.00;3511767;39;102033;-83
2021/07/19 02:56:56;;;;;;;1.55;1.05;;;19.70;99.90;;;17.75;100.00;100964.03;3511098;39;103267;-84
2021/07/19 02:59:24;;;;;;;1.83;1.15;;;19.60;99.90;;;17.71;100.00;100971.66;3522751;39;100603;-82
2021/07/19 03:01:55;;;;;;;2.78;1.73;;;19.80;99.90;;;17.70;100.00;100979.97;3511550;39;100046;-82
2021/07/19 03:04:26;;;;;;;2.30;1.20;;;19.60;99.90;;;17.66;100.00;100993.06;3524088;39;102874;-82
2021/07/19 03:07:00;;;;;;;1.77;1.10;;;19.60;99.90;;;17.71;100.00;100997.91;3523802;39;103232;-82
2021/07/19 03:09:33;;;;;;;2.13;1.50;;;19.50;99.90;;;17.76;100.00;101012.56;3523307;39;101381;-82
2021/07/19 03:12:02;;;;;;;2.15;1.60;;;20.10;99.90;;;17.70;100.00;101015.16;3534002;39;100187;-82
2021/07/19 03:14:35;;;;;;;3.03;1.33;;;20.20;99.90;;;17.79;100.00;101014.91;3522094;39;103348;-83
2021/07/19 03:17:08;;;;;;;1.35;1.10;;;19.80;99.90;;;17.77;100.00;101018.81;3534456;39;100958;-83
2021/07/19 03:19:39;;;;;;;1.88;1.42;;;19.50;99.90;;;17.72;100.00;101013.97;3534213;39;100600;-83
2021/07/19 03:22:09;;;;;;;3.05;1.42;;;19.60;99.90;;;17.80;100.00;101015.75;3520881;39;100428;-82
2021/07/19 03:24:51;;;;;;;3.92;0.95;;;19.70;99.90;;;17.80;100.00;101015.75;3531943;39;100967;-83
2021/07/19 03:27:22;;;;;;;1.05;0.90;;;19.60;99.90;;;17.79;100.00;101019.47;3522290;39;103003;-82
2021/07/19 03:29:54;;;;;;;1.60;1.33;;;19.60;99.90;;;17.79;100.00;101016.78;3522418;39;101250;-81
2021/07/19 03:32:24;;;;;;;2.33;1.40;;;19.60;99.90;;;17.70;100.00;101012.47;3522981;39;100105;-82
2021/07/19 03:34:56;;;;;;;1.35;1.25;;;19.90;99.90;;;17.73;100.00;101022.91;3518405;39;103014;-81
2021/07/19 03:37:30;;;;;;;2.28;1.67;;;19.60;99.90;;;17.77;100.00;101016.13;3519223;39;101894;-84
2021/07/19 03:40:00;;;;;;;2.05;1.50;;;20.60;99.90;;;17.72;100.00;101019.38;3522940;39;102296;-82
2021/07/19 03:42:28;;;;;;;2.25;1.60;;;19.60;99.90;;;17.68;100.00;101018.06;3522172;39;100074;-82
2021/07/19 03:44:58;;;;;;;3.97;1.88;;;19.50;99.90;;;17.68;100.00;101009.13;3530240;39;101355;-83
2021/07/19 03:47:30;;;;;;;2.08;1.10;;;19.60;99.90;;;17.77;100.00;101008.00;3526302;39;103662;-83
2021/07/19 03:50:00;;;;;;;2.95;1.35;;;19.50;99.90;;;17.70;100.00;101015.16;3523939;39;102234;-81
2021/07/19 03:52:28;;;;;;;3.67;1.50;;;19.60;99.90;;;17.69;100.00;101011.63;3529473;39;100115;-82
2021/07/19 03:54:56;;;;;;;2.38;1.63;;;19.60;99.90;;;17.74;100.00;101005.66;3523132;39;102670;-82
2021/07/19 03:57:29;;;;;;;1.98;1.42;;;19.60;99.90;;;17.72;100.00;101002.28;3522511;39;102931;-82
2021/07/19 03:59:58;;;;;;;2.70;1.35;;;20.60;99.90;;;17.69;100.00;101002.66;3509512;39;100404;-81
2021/07/19 04:02:31;;;;;;;2.63;1.60;;;19.60;99.90;;;17.72;100.00;100995.00;3519732;39;100089;-82
2021/07/19 04:05:06;;;;;;;2.88;1.75;;;19.60;99.90;;;17.70;100.00;100979.97;3511301;39;103521;-84
2021/07/19 04:07:44;;;;;;;3.85;1.88;;;19.60;99.90;;;17.71;100.00;100968.13;3521693;39;102399;-83
2021/07/19 04:10:14;;;;;;;2.38;1.40;;;19.80;99.90;;;17.74;100.00;100959.63;3524195;39;102345;-84
2021/07/19 04:12:50;;;;;;;2.10;1.73;;;19.60;99.90;;;17.72;100.00;100940.03;3534917;39;99879;-82
2021/07/19 04:15:22;;;;;;;1.85;1.27;;;20.50;99.90;;;17.77;100.00;100948.44;3513140;39;102952;-83
2021/07/19 04:17:53;;;;;;;2.50;2.03;;;20.40;99.90;;;17.74;100.00;100938.81;3511905;39;102834;-84
2021/07/19 04:20:28;;;;;;;3.00;1.75;;;20.60;99.90;;;17.70;100.00;100936.69;3517230;39;100887;-84
2021/07/19 04:22:56;;;;;;;6.07;1.60;;;19.60;99.90;;;17.70;100.00;100929.41;3514479;39;100179;-83
2021/07/19 04:25:24;;;;;;;3.38;1.80;;;19.60;99.90;;;17.72;100.00;100924.63;3525182;39;100936;-82
2021/07/19 04:27:51;;;;;;;3.20;1.42;;;20.60;99.90;;;17.66;100.00;100917.28;3526252;39;101426;-83
2021/07/19 04:30:20;;;;;;;3.90;2.08;;;19.60;99.90;;;17.70;100.00;100912.31;3518927;39;102271;-82
2021/07/19 04:32:56;;;;;;;2.50;1.50;;;20.00;99.90;;;17.77;100.00;100918.66;3526576;39;100110;-84
2021/07/19 04:35:23;;;;;;;2.50;1.55;;;19.60;99.90;;;17.79;100.00;100916.63;3513581;39;100492;-84
2021/07/19 04:37:53;;;;;;;1.48;1.23;;;19.60;99.90;;;17.72;100.00;100910.25;3511317;39;103211;-83
2021/07/19 04:40:23;;;;;;;1.83;1.65;;;19.60;99.90;;;17.62;100.00;100905.13;3522031;39;100056;-84
2021/07/19 04:42:50;;;;;;;3.17;1.83;;;20.60;99.90;;;17.58;100.00;100907.34;3524244;39;100270;-83
2021/07/19 04:45:20;;;;;;;2.80;1.85;;;19.80;99.90;;;17.51;100.00;100903.75;3509299;39;103043;-83
2021/07/19 04:47:49;;;;;;;2.60;1.90;;;19.60;99.90;;;17.47;100.00;100897.00;3532413;39;100873;-83
2021/07/19 04:50:19;;;;;;;4.40;1.90;;;19.60;99.90;;;17.38;100.00;100887.34;3528357;39;100273;-83
2021/07/19 04:53:05;;;;;;;2.85;1.95;;;19.60;99.90;;;17.34;100.00;100877.91;3513843;39;100140;-85
2021/07/19 04:55:34;;;;;;;2.20;1.77;;;19.60;99.90;;;17.33;100.00;100872.69;3525348;39;101094;-83
2021/07/19 04:58:04;;;;;;;2.47;1.77;;;19.50;99.90;;;17.28;100.00;100862.44;3523209;39;101185;-83
2021/07/19 05:00:34;;;;;;;10.20;2.58;;;19.40;99.90;;;17.21;100.00;100848.81;3512964;39;102898;-83
2021/07/19 05:03:04;;;;;;;2.67;1.60;;;19.50;99.90;;;17.30;100.00;100832.50;3513203;39;100594;-83
2021/07/19 05:05:35;;;;;;;3.47;2.28;;;19.40;99.90;;;17.19;100.00;100823.81;3510250;39;103323;-82
2021/07/19 05:08:04;;;;;;;3.58;1.98;;;19.40;99.90;;;17.18;100.00;100813.22;3512888;39;103768;-82
2021/07/19 05:10:31;;;;;;;1.95;1.60;;;19.40;99.90;;;17.12;100.00;100806.69;3522613;39;100471;-82
2021/07/19 05:13:00;;;;;;;2.22;1.95;;;19.30;99.90;;;17.17;100.00;100801.56;3524651;39;100468;-83
2021/07/19 05:15:27;;;;;;;2.80;2.38;;;19.30;99.90;;;17.15;100.00;100802.78;3521443;39;100929;-83
2021/07/19 05:17:55;;;;;;;3.90;1.85;;;19.30;99.90;;;17.06;100.00;100803.91;3520216;39;101291;-84
2021/07/19 05:20:24;;;;;;;3.70;2.25;;;19.40;99.90;;;17.07;100.00;100805.56;3531970;39;100251;-83
2021/07/19 05:22:55;;;;;;;3.50;1.85;;;19.20;99.90;;;17.05;100.00;100808.47;3529653;39;100022;-83
2021/07/19 05:25:25;;;;;;;2.17;1.90;;;19.20;99.90;;;17.10;100.00;100816.84;3527483;39;101302;-84
2021/07/19 05:28:10;;;;;;;4.30;1.80;;;19.20;99.90;;;17.10;100.00;100818.69;3522901;39;101192;-85
2021/07/19 05:30:40;;;;;;;4.30;2.08;;;19.20;99.90;;;17.07;100.00;100821.78;3520814;39;102561;-84
2021/07/19 05:33:10;;;;;;;2.03;1.48;;;19.20;99.90;;;17.07;100.00;100814.50;3521712;39;100042;-82
2021/07/19 05:35:38;;;;;;;4.40;2.60;;;19.20;99.90;;;17.07;100.00;100821.78;3520032;39;101417;-85
2021/07/19 05:38:07;;;;;;;3.10;2.22;;;19.20;99.90;;;17.04;100.00;100819.47;3522332;39;100707;-83
2021/07/19 05:40:38;;;;;;;3.28;1.98;;;19.20;99.90;;;16.91;100.00;100822.81;3512395;39;102442;-84
2021/07/19 05:43:05;;;;;;;2.80;2.30;;;19.20;99.90;;;16.87;100.00;100813.41;3519853;39;100160;-82
2021/07/19 05:45:33;;;;;;;4.63;2.22;;;20.00;99.90;;;16.85;100.00;100816.28;3522090;39;101296;-83
2021/07/19 05:48:01;;;;;;;5.00;2.67;;;19.20;99.90;;;16.84;100.00;100811.06;3512010;39;102625;-84
2021/07/19 05:50:29;;;;;;;4.53;1.75;;;19.20;99.90;;;16.87;100.00;100808.84;3522415;39;100324;-85
2021/07/19 05:52:57;;;;;;;2.05;1.60;;;19.10;99.90;;;16.60;100.00;100803.19;3532878;39;99877;-82
2021/07/19 05:55:27;;;;;;;5.45;2.63;;;19.20;99.90;;;16.53;100.00;100801.25;3533668;39;99913;-84
2021/07/19 05:57:54;;;;;;;6.55;2.55;;;19.00;99.90;;;16.44;100.00;100793.41;3539001;39;101120;-82
2021/07/19 06:00:23;;;;;;;4.60;2.50;;;19.00;99.90;;;16.33;100.00;100789.25;3526146;39;102889;-83
2021/07/19 06:02:50;;;;;;;7.88;2.53;;;20.00;99.90;;;16.35;100.00;100786.38;3534467;39;100094;-83
2021/07/19 06:05:18;;;;;;;3.25;1.73;;;18.80;99.90;;;16.11;100.00;100772.09;3547655;39;100838;-83
2021/07/19 06:07:46;;;;;;;5.22;2.90;;;18.80;99.90;;;16.09;100.00;100770.59;3542706;39;100373;-83
2021/07/19 06:10:15;;;;;;;6.45;2.15;;;19.80;99.90;;;16.19;100.00;100776.59;3534278;39;100583;-84
2021/07/19 06:12:44;;;;;;;5.72;2.10;;;18.70;99.90;;;16.11;100.00;100755.06;3535019;39;100127;-80
2021/07/19 06:15:14;;;;;;;4.97;2.75;;;19.10;99.90;;;16.21;100.00;100757.50;3533026;39;102167;-84
2021/07/19 06:17:42;;;;;;;3.78;2.38;;;18.60;99.90;;;16.26;100.00;100755.94;3537961;39;101401;-83
2021/07/19 06:20:13;;;;;;;3.67;2.33;;;18.50;99.90;;;16.19;100.00;100746.06;3531298;39;100878;-84
2021/07/19 06:22:41;;;;;;;4.18;2.05;;;18.50;99.90;;;16.17;100.00;100751.63;3534927;39;100107;-84
2021/07/19 06:25:11;;;;;;;3.72;2.22;;;18.80;99.90;;;16.19;100.00;100756.84;3535327;39;100774;-83
2021/07/19 06:27:38;;;;;;;2.35;1.58;;;18.60;99.90;;;16.34;100.00;100763.94;3536307;39;101031;-85
2021/07/19 06:30:09;;;;;;;2.53;1.85;;;18.50;99.90;;;16.33;100.00;100751.47;3516524;39;101656;-85
2021/07/19 06:32:37;;;;;;;3.50;1.73;;;18.60;99.90;;;16.34;100.00;100749.59;3515668;39;100242;-85
2021/07/19 06:35:04;;;;;;;4.72;2.15;;;19.40;99.90;;;16.37;100.00;100744.69;3525993;39;101027;-84
2021/07/19 06:37:31;;;;;;;5.88;2.53;;;18.60;99.90;;;16.30;100.00;100757.25;3511151;39;103379;-83
2021/07/19 06:39:59;;;;;;;11.45;2.35;;;18.70;99.90;;;16.15;100.00;100750.97;3522991;39;100378;-83
2021/07/19 06:42:26;;;;;;;3.92;2.42;;;18.70;99.90;;;16.26;100.00;100753.22;3522436;39;100237;-84
2021/07/19 06:44:56;;;;;;;2.25;1.95;;;19.20;99.90;;;16.50;100.00;100752.97;3523708;39;101376;-84
2021/07/19 06:47:25;;;;;;;4.72;2.00;;;18.80;99.90;;;16.66;100.00;100756.56;3520732;39;103433;-83
2021/07/19 06:49:52;;;;;;;7.40;2.58;;;19.20;99.90;;;16.74;100.00;100753.75;3521719;39;101246;-83
2021/07/19 06:52:20;;;;;;;1.50;1.40;;;18.90;99.90;;;16.38;100.00;100748.22;3521502;39;100158;-83
2021/07/19 06:54:47;;;;;;;4.63;2.20;;;19.00;99.90;;;16.22;100.00;100746.50;3521639;39;101251;-83
2021/07/19 06:57:14;;;;;;;8.65;2.08;;;19.00;99.90;;;16.60;100.00;100749.16;3510974;39;103274;-83
2021/07/19 06:59:41;;;;;;;2.92;2.15;;;20.10;99.90;;;16.61;100.00;100746.28;3511803;39;102176;-86
2021/07/19 07:02:09;;;;;;;4.38;1.80;;;19.00;99.80;;;16.71;100.00;100746.84;3507990;39;100287;-82
2021/07/19 07:04:37;;;;;;;4.30;2.67;;;19.10;99.50;;;16.92;100.00;100734.47;3519110;39;101028;-83
2021/07/19 07:07:05;;;;;;;3.58;1.90;;;19.20;99.60;;;16.72;100.00;100739.59;3519788;39;100975;-83
2021/07/19 07:09:33;;;;;;;9.05;2.30;;;19.30;98.70;;;17.22;100.00;100738.78;3518459;39;101045;-84
2021/07/19 07:12:00;;;;;;;5.20;1.80;;;20.20;99.00;;;17.30;100.00;100733.28;3509676;39;100389;-83
2021/07/19 07:14:27;;;;;;;6.15;2.03;;;20.60;99.20;;;16.89;100.00;100732.97;3520362;39;100997;-82
2021/07/19 07:16:54;;;;;;;2.45;1.83;;;19.50;98.10;;;17.12;100.00;100730.13;3510684;39;102704;-82
2021/07/19 07:19:21;;;;;;;1.50;1.40;;;20.80;98.30;;;17.39;100.00;100726.72;3520682;39;100383;-83
2021/07/19 07:21:50;;;;;;;3.58;1.83;;;19.80;97.40;;;17.34;100.00;100723.72;3518838;39;100021;-87
2021/07/19 07:24:17;;;;;;;4.53;1.50;;;20.00;96.40;;;17.56;100.00;100732.69;3515935;39;101080;-84
2021/07/19 07:26:44;;;;;;;6.63;1.63;;;20.80;96.50;;;17.33;100.00;100719.34;3531416;39;101170;-84
2021/07/19 07:29:11;;;;;;;2.95;1.67;;;20.70;95.40;;;16.84;100.00;100720.00;3519978;39;101252;-84
2021/07/19 07:31:38;;;;;;;5.57;1.75;;;21.30;94.00;;;17.15;100.00;100721.66;3544890;39;99791;-84
2021/07/19 07:34:05;;;;;;;2.38;1.33;;;20.30;93.60;;;16.96;100.00;100717.66;3533897;39;100379;-83
2021/07/19 07:36:34;;;;;;;1.95;1.17;;;20.70;93.10;;;16.78;100.00;100709.13;3521481;39;103155;-83
2021/07/19 07:39:05;;;;;;;1.60;1.33;;;20.30;91.50;;;16.51;100.00;100707.91;3529884;39;100501;-82
2021/07/19 07:41:32;;;;;;;6.90;2.03;;;21.30;91.00;;;16.61;100.00;100703.03;3524266;39;100503;-83
2021/07/19 07:43:59;;;;;;;1.67;1.30;;;20.20;90.20;;;16.92;100.00;100712.84;3520173;39;102687;-82
2021/07/19 07:46:27;;;;;;;7.10;1.45;;;20.10;90.70;;;16.86;100.00;100690.94;3531532;39;100967;-82
2021/07/19 07:48:55;;;;;;;2.80;1.27;;;20.70;91.40;;;16.96;100.00;100695.19;3523408;39;100635;-82
2021/07/19 07:51:22;;;;;;;2.97;1.65;;;21.20;91.30;;;17.02;100.00;100706.09;3509996;39;100317;-83
2021/07/19 07:53:50;;;;;;;6.70;1.83;;;21.10;91.40;;;17.31;100.00;100698.94;3509987;39;103387;-84
2021/07/19 07:56:18;;;;;;;2.97;1.73;;;20.10;91.30;;;17.44;100.00;100694.50;3529291;39;101212;-84
2021/07/19 07:58:45;;;;;;;4.82;1.85;;;20.90;91.60;;;17.54;100.00;100686.06;3532466;39;100894;-84
2021/07/19 08:01:12;;;;;;;1.42;1.25;;;20.60;91.50;;;17.20;100.00;100690.28;3531309;39;100392;-83
2021/07/19 08:03:39;;;;;;;6.72;1.65;;;20.50;89.60;;;17.00;100.00;100681.13;3527723;39;100787;-82
2021/07/19 08:06:06;;;;;;;3.20;1.95;;;21.40;87.60;;;17.01;100.00;100682.81;3520206;39;101660;-84
2021/07/19 08:08:33;;;;;;;3.40;1.40;;;21.60;87.00;;;17.36;100.00;100681.09;3510116;39;101629;-84
2021/07/19 08:11:00;;;;;;;2.78;0.93;;;19.70;84.80;;;17.39;100.00;100671.78;3519253;39;100050;-83
2021/07/19 08:13:29;;;;;;;3.65;1.25;;;20.50;85.20;;;17.39;100.00;100685.28;3524614;39;100961;-84
2021/07/19 08:15:56;;;;;;;2.92;1.70;;;20.50;84.00;;;17.75;100.00;100685.25;3519898;39;101514;-83
2021/07/19 08:18:23;;;;;;;4.22;1.80;;;20.60;84.30;;;17.40;100.00;100677.00;3508665;39;102516;-83
2021/07/19 08:20:51;;;;;;;3.22;1.65;;;20.70;83.50;;;17.34;100.00;100685.84;3519322;39;100139;-84
2021/07/19 08:23:18;;;;;;;5.38;1.75;;;20.80;83.60;;;17.32;100.00;100681.66;3518671;39;101249;-84
2021/07/19 08:25:45;;;;;;;1.50;1.40;;;20.70;83.00;;;17.33;100.00;100677.94;3520509;39;101183;-84
2021/07/19 08:28:13;;;;;;;2.95;1.75;;;20.80;82.30;;;17.53;100.00;100684.41;3518823;39;100361;-83
2021/07/19 08:30:42;;;;;;;2.90;1.50;;;21.70;82.50;;;17.13;100.00;100677.72;3510395;39;100427;-84
2021/07/19 08:33:09;;;;;;;3.78;1.90;;;20.80;81.00;;;17.55;100.00;100676.94;3517770;39;101271;-82
2021/07/19 08:35:37;;;;;;;2.55;1.73;;;21.50;81.40;;;18.36;100.00;100677.34;3518785;39;101720;-83
2021/07/19 08:38:06;;;;;;;1.83;1.15;;;20.90;80.70;;;19.03;100.00;100674.81;3509813;39;102155;-82
2021/07/19 08:40:34;;;;;;;1.85;1.63;;;21.20;80.90;;;19.15;100.00;100680.47;3508450;39;100210;-83
2021/07/19 08:43:04;;;;;;;3.75;1.58;;;21.50;79.80;;;19.38;100.00;100673.63;3518755;39;100685;-83
2021/07/19 08:45:31;;;;;;;2.15;1.95;;;21.80;78.10;;;18.11;100.00;100671.56;3508941;39;102286;-81
2021/07/19 08:48:00;;;;;;;1.38;1.23;;;22.70;74.90;;;19.09;100.00;100665.00;3517868;39;100836;-81
2021/07/19 08:50:27;;;;;;;2.65;1.80;;;23.10;74.10;;;18.10;100.00;100667.19;3513939;39;100142;-84
2021/07/19 08:52:56;;;;;;;2.70;2.03;;;22.40;70.40;;;18.30;100.00;100670.84;3530735;39;100271;-82
2021/07/19 08:55:25;;;;;;;5.43;1.45;;;22.60;67.90;;;18.47;100.00;100665.97;3519456;39;100246;-82
2021/07/19 08:57:52;;;;;;;4.57;1.63;;;22.50;67.20;;;19.07;100.00;100667.06;3509898;39;102034;-85
2021/07/19 09:00:22;;;;;;;6.90;1.70;;;22.90;67.60;;;18.92;100.00;100669.94;3520248;39;100048;-83
2021/07/19 09:02:49;;;;;;;2.40;1.58;;;22.60;66.90;;;20.45;100.00;100661.72;3517675;39;100994;-83
2021/07/19 09:05:17;;;;;;;2.75;1.90;;;23.30;68.60;;;19.52;100.00;100673.69;3508178;39;102945;-83
2021/07/19 09:07:45;;;;;;;3.83;1.45;;;23.10;67.50;;;19.19;100.00;100662.72;3517578;39;100501;-83
2021/07/19 09:10:13;;;;;;;4.03;2.20;;;23.30;67.20;;;19.35;100.00;100667.78;3507512;39;100277;-82
2021/07/19 09:12:43;;;;;;;3.75;1.90;;;23.60;66.70;;;19.19;100.00;100668.16;3506432;39;102762;-83
2021/07/19 09:15:13;;;;;;;2.15;1.40;;;24.30;65.60;;;19.17;100.00;100662.09;3517849;39;101862;-83
2021/07/19 09:17:41;;;;;;;2.90;1.77;;;23.80;62.80;;;18.57;100.00;100667.25;3518175;39;100547;-82
2021/07/19 09:20:13;;;;;;;3.75;2.00;;;24.00;62.00;;;18.53;100.00;100668.72;3518671;39;100085;-83
2021/07/19 09:22:41;;;;;;;3.90;2.13;;;23.90;61.20;;;18.42;100.00;100674.69;3520703;39;101404;-82
2021/07/19 09:25:13;;;;;;;4.05;1.95;;;24.00;60.10;;;18.08;100.00;100666.53;3521856;39;103500;-82
2021/07/19 09:27:56;;;;;;;2.40;1.67;;;23.60;59.00;;;17.92;100.00;100668.53;3537358;39;99613;-87
2021/07/19 09:30:27;;;;;;;4.70;1.98;;;23.30;59.60;;;18.36;100.00;100680.06;3517937;39;100189;-83
2021/07/19 09:33:06;;;;;;;6.97;2.08;;;23.40;60.90;;;18.55;100.00;100682.03;3523283;39;101390;-87
2021/07/19 09:35:36;;;;;;;6.10;2.08;;;22.90;61.80;;;18.40;100.00;100670.50;3514871;39;101630;-85
2021/07/19 09:38:09;;;;;;;5.28;1.98;;;23.40;62.50;;;18.25;100.00;100670.63;3518281;39;100164;-84
2021/07/19 09:40:39;;;;;;;6.68;2.13;;;22.90;62.30;;;18.09;100.00;100674.47;3515227;39;100108;-83
2021/07/19 09:43:18;;;;;;;2.58;1.90;;;23.50;62.60;;;18.51;100.00;100680.78;3514680;39;103124;-83
2021/07/19 09:45:55;;;;;;;3.55;1.95;;;22.70;62.60;;;18.14;100.00;100676.59;3515601;39;101608;-81
2021/07/19 09:48:23;;;;;;;3.72;1.70;;;22.70;62.90;;;18.18;100.00;100675.97;3520983;39;100526;-82
2021/07/19 09:50:52;;;;;;;4.15;2.20;;;22.70;62.90;;;17.75;100.00;100671.72;3527061;39;100030;-83
2021/07/19 09:53:32;;;;;;;3.03;2.30;;;22.60;62.20;;;17.84;100.00;100674.06;3525555;39;101152;-81
2021/07/19 09:56:12;;;;;;;3.15;1.85;;;22.50;62.60;;;17.77;100.00;100675.91;3525861;39;101451;-82
2021/07/19 09:58:39;;;;;;;4.43;2.15;;;22.30;62.00;;;17.90;100.00;100673.31;3526431;39;100676;-83
2021/07/19 10:01:06;;;;;;;3.65;2.33;;;22.20;61.90;;;18.27;100.00;100674.81;3527009;39;100078;-82
2021/07/19 10:03:33;;;;;;;4.45;2.47;;;22.50;62.30;;;18.51;100.00;100681.63;3525958;39;100951;-82
2021/07/19 10:06:10;;;;;;;5.10;1.83;;;22.70;62.90;;;18.55;100.00;100682.88;3525688;39;101020;-81
2021/07/19 10:08:39;;;;;;;3.10;1.70;;;22.20;62.90;;;18.57;100.00;100669.97;3527811;39;100908;-82
2021/07/19 10:11:16;;;;;;;2.83;1.88;;;22.70;63.20;;;18.47;100.00;100674.09;3526110;39;100049;-81
2021/07/19 10:13:48;;;;;;;5.25;1.92;;;22.40;62.70;;;18.99;100.00;100668.94;3522751;39;102770;-80